createdAt,value
2019-05-12T00:13:58.572Z,1.33
2019-05-12T00:16:38.772Z,1.30
2019-05-12T00:19:09.229Z,1.20
2019-05-12T00:21:44.465Z,1.47
2019-05-12T00:24:18.643Z,1.47
2019-05-12T00:27:02.118Z,1.20
2019-05-12T00:30:10.534Z,1.63
2019-05-12T00:32:51.035Z,1.50
2019-05-12T00:41:44.849Z,1.20
2019-05-12T00:44:20.535Z,1.50
2019-05-12T00:46:53.792Z,1.60
2019-05-12T00:49:54.537Z,1.20
2019-05-12T01:01:58.578Z,1.37
2019-05-12T01:04:24.838Z,1.73
2019-05-12T01:06:58.262Z,1.50
2019-05-12T01:09:33.385Z,1.20
2019-05-12T01:22:35.051Z,1.50
2019-05-12T01:25:08.721Z,1.20
2019-05-12T01:27:40.325Z,1.77
2019-05-12T01:30:28.670Z,1.30
2019-05-12T01:32:58.874Z,1.40
2019-05-12T01:35:29.456Z,1.30
2019-05-12T01:38:01.540Z,1.40
2019-05-12T01:40:31.246Z,1.43
2019-05-12T01:43:01.068Z,1.10
2019-05-12T01:45:31.153Z,1.27
2019-05-12T01:48:02.843Z,1.30
2019-05-12T01:50:33.386Z,1.63
2019-05-12T01:53:07.933Z,1.67
2019-05-12T01:55:39.530Z,1.53
2019-05-12T01:58:31.573Z,1.50
2019-05-12T02:05:38.269Z,1.30
2019-05-12T02:11:37.968Z,1.30
2019-05-12T02:14:09.506Z,1.30
2019-05-12T02:16:40.818Z,1.80
2019-05-12T02:19:13.847Z,1.37
2019-05-12T02:39:35.246Z,1.20
2019-05-12T02:42:27.973Z,1.00
2019-05-12T02:44:58.534Z,1.40
2019-05-12T02:47:34.410Z,1.33
2019-05-12T02:50:05.363Z,2.07
2019-05-12T02:52:35.021Z,1.30
2019-05-12T02:55:06.433Z,1.20
2019-05-12T02:57:38.143Z,1.43
2019-05-12T03:00:11.338Z,1.10
2019-05-12T03:02:46.668Z,1.77
2019-05-12T03:05:16.650Z,1.47
2019-05-12T03:07:48.169Z,1.70
2019-05-12T03:10:18.340Z,1.80
2019-05-12T03:12:49.654Z,1.30
2019-05-12T03:15:20.643Z,1.60
2019-05-12T03:17:50.766Z,1.20
2019-05-12T03:20:24.194Z,1.27
2019-05-12T03:22:55.395Z,1.13
2019-05-12T03:25:30.102Z,1.17
2019-05-12T03:27:58.281Z,1.30
2019-05-12T03:30:29.776Z,1.37
2019-05-12T03:32:59.943Z,1.33
2019-05-12T03:38:07.950Z,1.63
2019-05-12T03:40:38.930Z,1.33
2019-05-12T03:43:09.366Z,1.67
2019-05-12T03:45:39.347Z,1.67
2019-05-12T03:49:05.341Z,1.53
2019-05-12T03:52:15.912Z,1.40
2019-05-12T04:49:27.378Z,1.60
2019-05-12T04:52:27.397Z,1.50
2019-05-12T04:54:57.494Z,1.60
2019-05-12T04:57:28.135Z,1.50
2019-05-12T05:00:00.280Z,1.70
2019-05-12T05:02:30.773Z,1.63
2019-05-12T05:05:01.517Z,1.67
2019-05-12T05:07:35.650Z,1.27
2019-05-12T05:10:04.882Z,1.40
2019-05-12T05:12:34.998Z,1.30
2019-05-12T05:15:05.792Z,1.20
2019-05-12T05:17:36.762Z,1.50
2019-05-12T05:20:06.619Z,1.50
2019-05-12T05:22:38.208Z,1.10
2019-05-12T05:25:08.802Z,1.40
2019-05-12T05:27:39.763Z,1.33
2019-05-12T05:30:13.862Z,1.63
2019-05-12T05:32:44.642Z,1.47
2019-05-12T05:35:15.063Z,1.60
2019-05-12T05:37:44.913Z,1.40
2019-05-12T05:40:15.014Z,1.00
2019-05-12T05:42:49.090Z,1.20
2019-05-12T05:45:24.144Z,1.30
2019-05-12T05:48:35.096Z,1.67
2019-05-12T05:51:16.205Z,1.23
2019-05-12T05:53:54.022Z,1.23
2019-05-12T05:56:38.730Z,0.90
2019-05-12T05:59:07.751Z,1.03
2019-05-12T06:01:40.259Z,1.30
2019-05-12T06:04:14.120Z,1.20
2019-05-12T06:06:50.827Z,1.50
2019-05-12T06:09:20.063Z,1.00
2019-05-12T06:11:49.927Z,1.00
2019-05-12T06:14:19.533Z,1.20
2019-05-12T06:16:49.143Z,1.03
2019-05-12T06:19:25.702Z,1.23
2019-05-12T06:21:53.470Z,1.20
2019-05-12T06:24:24.335Z,1.10
2019-05-12T06:27:00.428Z,1.00
2019-05-12T06:29:26.420Z,1.20
2019-05-12T06:31:59.978Z,1.17
2019-05-12T06:34:29.091Z,1.43
2019-05-12T06:37:03.036Z,1.30
2019-05-12T06:39:30.187Z,1.20
2019-05-12T06:42:08.632Z,1.20
2019-05-12T06:44:33.502Z,1.20
2019-05-12T06:47:08.170Z,1.10
2019-05-12T06:49:34.489Z,1.27
2019-05-12T06:52:07.040Z,1.40
2019-05-12T06:54:35.479Z,1.63
2019-05-12T06:57:20.925Z,1.03
2019-05-12T06:59:36.532Z,1.53
2019-05-12T07:02:07.603Z,1.50
2019-05-12T07:04:41.288Z,1.50
2019-05-12T07:07:09.964Z,0.97
2019-05-12T07:09:50.064Z,1.30
2019-05-12T07:12:13.571Z,1.07
2019-05-12T07:14:43.830Z,1.67
2019-05-12T07:17:43.764Z,1.20
2019-05-12T07:20:14.557Z,1.20
2019-05-12T07:22:48.328Z,1.30
2019-05-12T07:25:16.188Z,1.70
2019-05-12T07:27:55.285Z,1.40
2019-05-12T07:30:24.025Z,1.40
2019-05-12T07:32:59.644Z,1.50
2019-05-12T07:35:29.103Z,1.40
2019-05-12T07:37:59.588Z,1.47
2019-05-12T07:40:34.714Z,1.50
2019-05-12T07:43:04.203Z,1.40
2019-05-12T07:45:34.215Z,1.83
2019-05-12T07:48:09.992Z,1.77
2019-05-12T07:50:35.297Z,1.47
2019-05-12T07:53:07.973Z,1.50
2019-05-12T07:55:39.587Z,1.33
2019-05-12T07:58:13.710Z,1.37
2019-05-12T08:00:40.390Z,1.20
2019-05-12T08:03:16.340Z,1.60
2019-05-12T08:05:43.754Z,1.47
2019-05-12T08:08:14.550Z,1.40
2019-05-12T08:10:44.340Z,1.80
2019-05-12T08:13:14.924Z,1.97
2019-05-12T08:15:50.184Z,1.30
2019-05-12T08:18:16.949Z,1.20
2019-05-12T08:20:46.377Z,1.43
2019-05-12T08:23:15.798Z,1.30
2019-05-12T08:25:45.244Z,1.63
2019-05-12T08:28:18.314Z,1.30
2019-05-12T08:30:50.480Z,1.30
2019-05-12T08:33:16.858Z,0.93
2019-05-12T08:35:46.312Z,1.07
2019-05-12T08:38:15.700Z,1.20
2019-05-12T08:40:50.827Z,1.40
2019-05-12T08:43:16.296Z,1.20
2019-05-12T08:45:45.671Z,1.00
2019-05-12T08:48:21.413Z,0.80
2019-05-12T08:50:46.311Z,1.00
2019-05-12T08:53:20.716Z,0.80
2019-05-12T08:55:47.766Z,1.20
2019-05-12T08:58:30.197Z,0.97
2019-05-12T09:00:55.182Z,0.83
2019-05-12T09:03:30.507Z,0.90
2019-05-12T09:06:00.286Z,0.83
2019-05-12T09:08:29.878Z,0.80
2019-05-12T09:10:59.379Z,0.90
2019-05-12T09:13:28.798Z,1.03
2019-05-12T09:15:59.032Z,1.13
2019-05-12T09:18:34.217Z,1.20
2019-05-12T09:20:59.746Z,1.10
2019-05-12T09:23:32.844Z,1.37
2019-05-12T09:26:00.420Z,1.40
2019-05-12T09:28:44.344Z,1.27
2019-05-12T09:31:03.705Z,1.47
2019-05-12T09:33:34.755Z,1.53
2019-05-12T09:36:04.753Z,1.40
2019-05-12T09:38:34.374Z,1.50
2019-05-12T09:41:05.445Z,1.60
2019-05-12T09:43:34.951Z,1.20
2019-05-12T09:46:04.400Z,1.60
2019-05-12T09:48:33.962Z,1.20
2019-05-12T09:51:05.810Z,1.37
2019-05-12T09:53:34.691Z,1.23
2019-05-12T09:56:04.519Z,1.50
2019-05-12T09:58:34.177Z,1.53
2019-05-12T10:01:03.781Z,1.10
2019-05-12T10:03:38.395Z,1.30
2019-05-12T10:06:04.945Z,1.40
2019-05-12T10:08:35.722Z,1.27
2019-05-12T10:11:10.319Z,1.40
2019-05-12T10:13:41.592Z,2.00
2019-05-12T10:16:13.310Z,1.50
2019-05-12T10:18:51.325Z,2.10
2019-05-12T10:21:17.615Z,2.10
2019-05-12T10:23:51.545Z,1.63
2019-05-12T10:26:18.292Z,1.40
2019-05-12T10:28:51.859Z,1.53
2019-05-12T10:31:19.062Z,1.80
2019-05-12T10:33:49.091Z,2.17
2019-05-12T10:36:19.614Z,2.60
2019-05-12T10:38:48.963Z,2.20
2019-05-12T10:41:18.502Z,2.30
2019-05-12T10:43:48.384Z,2.20
2019-05-12T10:46:27.184Z,2.07
2019-05-12T10:48:53.865Z,2.00
2019-05-12T10:51:23.873Z,2.23
2019-05-12T10:53:58.323Z,1.93
2019-05-12T10:56:24.593Z,1.97
2019-05-12T10:58:54.063Z,1.80
2019-05-12T11:01:24.353Z,2.20
2019-05-12T11:03:53.971Z,1.97
2019-05-12T11:06:24.313Z,1.90
2019-05-12T11:08:54.246Z,1.83
2019-05-12T11:11:24.136Z,2.10
2019-05-12T11:13:54.466Z,1.80
2019-05-12T11:16:31.102Z,1.73
2019-05-12T11:18:54.891Z,1.83
2019-05-12T11:21:24.195Z,1.93
2019-05-12T11:23:54.329Z,2.00
2019-05-12T11:26:23.891Z,2.10
2019-05-12T11:28:53.366Z,2.13
2019-05-12T11:31:24.355Z,1.53
2019-05-12T11:33:54.243Z,1.80
2019-05-12T11:36:24.511Z,2.40
2019-05-12T11:38:53.916Z,2.00
2019-05-12T11:41:28.202Z,1.83
2019-05-12T11:43:54.634Z,1.73
2019-05-12T11:46:24.057Z,1.90
2019-05-12T11:48:53.897Z,2.17
2019-05-12T11:51:28.880Z,2.93
2019-05-12T11:53:54.727Z,2.20
2019-05-12T11:56:24.409Z,2.37
2019-05-12T11:58:54.379Z,2.17
2019-05-12T12:01:25.553Z,2.50
2019-05-12T12:03:55.004Z,2.60
2019-05-12T12:06:24.522Z,2.20
2019-05-12T12:08:57.410Z,2.27
2019-05-12T12:11:28.098Z,2.37
2019-05-12T12:14:00.357Z,2.50
2019-05-12T12:16:29.235Z,2.13
2019-05-12T12:19:02.707Z,2.53
2019-05-12T12:21:31.937Z,2.40
2019-05-12T12:24:00.864Z,2.57
2019-05-12T12:26:31.624Z,2.53
2019-05-12T12:29:03.187Z,2.20
2019-05-12T12:31:49.231Z,3.27
2019-05-12T12:34:23.562Z,2.33
2019-05-12T12:36:50.172Z,2.70
2019-05-12T12:39:19.577Z,2.30
2019-05-12T12:41:58.356Z,2.60
2019-05-12T12:44:20.200Z,3.00
2019-05-12T12:46:51.185Z,2.90
2019-05-12T12:49:23.055Z,2.23
2019-05-12T12:51:52.838Z,3.30
2019-05-12T12:54:22.793Z,2.80
2019-05-12T12:56:53.907Z,2.43
2019-05-12T12:59:24.070Z,2.60
2019-05-12T13:01:53.830Z,2.20
2019-05-12T13:04:24.845Z,2.53
2019-05-12T13:06:54.469Z,2.23
2019-05-12T13:09:24.773Z,2.27
2019-05-12T13:11:55.763Z,1.77
2019-05-12T13:14:28.507Z,2.30
2019-05-12T13:16:56.837Z,2.17
2019-05-12T13:19:26.304Z,1.90
2019-05-12T13:21:55.698Z,2.30
2019-05-12T13:24:25.149Z,1.90
2019-05-12T13:26:54.565Z,2.33
2019-05-12T13:29:26.418Z,2.30
2019-05-12T13:31:55.030Z,2.57
2019-05-12T13:34:28.794Z,2.47
2019-05-12T13:36:55.548Z,2.23
2019-05-12T13:39:24.934Z,2.20
2019-05-12T13:41:58.537Z,2.40
2019-05-12T13:44:30.246Z,1.90
2019-05-12T13:46:58.851Z,2.20
2019-05-12T13:49:29.935Z,2.00
2019-05-12T13:51:58.755Z,2.23
2019-05-12T13:54:30.051Z,2.43
2019-05-12T13:57:03.846Z,2.17
2019-05-12T13:59:30.578Z,2.50
2019-05-12T14:01:59.954Z,2.10
2019-05-12T14:04:29.515Z,2.10
2019-05-12T14:06:58.989Z,2.17
2019-05-12T14:09:28.449Z,2.20
2019-05-12T14:11:57.789Z,2.40
2019-05-12T14:14:27.196Z,2.70
2019-05-12T14:16:59.442Z,2.10
2019-05-12T14:19:30.421Z,2.47
2019-05-12T14:21:58.848Z,2.20
2019-05-12T14:24:33.177Z,2.00
2019-05-12T14:26:59.431Z,2.42
2019-05-12T14:29:30.522Z,2.20
2019-05-12T14:32:03.070Z,2.33
2019-05-12T14:34:31.423Z,2.12
2019-05-12T14:37:08.507Z,2.12
2019-05-12T14:39:34.347Z,2.10
2019-05-12T14:42:04.322Z,1.80
2019-05-12T14:44:41.047Z,1.95
2019-05-12T14:47:05.145Z,1.95
2019-05-12T14:49:34.708Z,2.22
2019-05-12T14:52:04.328Z,2.20
2019-05-12T14:54:34.329Z,2.00
2019-05-12T14:57:03.862Z,2.33
2019-05-12T14:59:39.227Z,2.20
2019-05-12T15:02:06.187Z,2.25
2019-05-12T15:04:35.481Z,1.87
2019-05-12T15:07:08.675Z,1.90
2019-05-12T15:09:35.929Z,1.73
2019-05-12T15:12:05.257Z,2.10
2019-05-12T15:14:38.061Z,2.20
2019-05-12T15:17:05.745Z,2.70
2019-05-12T15:19:35.161Z,2.55
2019-05-12T15:22:07.668Z,2.12
2019-05-12T15:24:35.665Z,1.85
2019-05-12T15:27:05.087Z,1.90
2019-05-12T15:29:34.542Z,2.52
2019-05-12T15:32:06.008Z,2.20
2019-05-12T15:34:35.396Z,2.10
2019-05-12T15:37:04.733Z,2.27
2019-05-12T15:39:34.255Z,2.53
2019-05-12T15:42:03.773Z,2.20
2019-05-12T15:44:36.311Z,2.12
2019-05-12T15:47:04.308Z,2.00
2019-05-12T15:49:33.838Z,2.00
2019-05-12T15:52:03.710Z,2.05
2019-05-12T15:54:33.987Z,2.30
2019-05-12T15:57:04.432Z,2.35
2019-05-12T15:59:34.556Z,1.95
2019-05-12T16:02:13.176Z,2.08
2019-05-12T16:04:42.728Z,2.10
2019-05-12T16:07:09.302Z,1.98
2019-05-12T16:09:38.720Z,2.17
2019-05-12T16:12:18.679Z,2.17
2019-05-12T16:14:41.131Z,2.17
2019-05-12T16:17:10.360Z,2.35
2019-05-12T16:19:39.818Z,2.10
2019-05-12T16:22:09.341Z,2.17
2019-05-12T16:24:43.294Z,2.10
2019-05-12T16:27:09.868Z,2.00
2019-05-12T16:29:47.852Z,1.67
2019-05-12T16:32:23.812Z,2.15
2019-05-12T16:34:44.975Z,2.10
2019-05-12T16:37:14.100Z,2.60
2019-05-12T16:39:47.188Z,2.10
2019-05-12T16:42:14.961Z,2.10
2019-05-12T16:44:44.405Z,1.93
2019-05-12T16:47:18.620Z,1.83
2019-05-12T16:49:45.082Z,1.70
2019-05-12T16:52:14.519Z,2.60
2019-05-12T16:54:44.038Z,2.30
2019-05-12T16:57:17.968Z,2.20
2019-05-12T16:59:45.001Z,2.40
2019-05-12T17:02:14.659Z,2.00
2019-05-12T17:04:44.104Z,2.83
2019-05-12T17:07:18.925Z,1.80
2019-05-12T17:09:45.096Z,1.90
2019-05-12T17:12:14.794Z,2.00
2019-05-12T17:14:48.813Z,2.10
2019-05-12T17:17:20.987Z,2.20
2019-05-12T17:19:49.008Z,2.43
2019-05-12T17:22:18.365Z,1.73
2019-05-12T17:24:47.776Z,1.80
2019-05-12T17:27:23.882Z,1.70
2019-05-12T17:29:49.017Z,1.72
2019-05-12T17:32:18.485Z,1.50
2019-05-12T17:34:47.842Z,1.75
2019-05-12T17:37:17.196Z,2.17
2019-05-12T17:39:46.542Z,1.50
2019-05-12T17:42:21.700Z,1.53
2019-05-12T17:44:47.089Z,1.77
2019-05-12T17:47:21.526Z,1.70
2019-05-12T17:49:47.595Z,1.40
2019-05-12T17:52:18.651Z,1.60
2019-05-12T17:54:48.256Z,1.70
2019-05-12T17:57:19.904Z,1.63
2019-05-12T17:59:49.160Z,1.50
2019-05-12T18:02:18.586Z,1.80
2019-05-12T18:04:49.855Z,1.65
2019-05-12T18:07:19.520Z,2.00
2019-05-12T18:09:50.652Z,2.10
2019-05-12T18:12:20.053Z,1.70
2019-05-12T18:14:52.256Z,1.75
2019-05-12T18:17:20.539Z,1.87
2019-05-12T18:19:55.281Z,1.67
2019-05-12T18:22:23.399Z,1.40
2019-05-12T18:24:54.297Z,1.53
2019-05-12T18:27:23.624Z,1.53
2019-05-12T18:29:53.663Z,1.90
2019-05-12T18:32:24.377Z,1.70
2019-05-12T18:34:54.065Z,2.03
2019-05-12T18:37:24.176Z,1.90
2019-05-12T18:39:53.855Z,2.07
2019-05-12T18:42:24.558Z,2.00
2019-05-12T18:44:54.760Z,1.83
2019-05-12T18:47:31.864Z,2.00
2019-05-12T18:49:55.408Z,2.00
2019-05-12T18:52:29.240Z,1.87
2019-05-12T18:54:57.146Z,2.07
2019-05-12T18:57:27.189Z,2.37
2019-05-12T19:00:01.510Z,2.57
2019-05-12T19:02:28.643Z,2.33
2019-05-12T19:04:58.250Z,2.30
2019-05-12T19:07:39.365Z,2.47
2019-05-12T19:09:58.783Z,2.70
2019-05-12T19:12:32.348Z,2.80
2019-05-12T19:14:59.259Z,3.27
2019-05-12T19:17:28.620Z,2.87
2019-05-12T19:19:59.922Z,3.30
2019-05-12T19:22:29.157Z,2.93
2019-05-12T19:25:00.150Z,3.10
2019-05-12T19:27:29.570Z,3.13
2019-05-12T19:29:58.997Z,3.30
2019-05-12T19:32:29.399Z,3.40
2019-05-12T19:34:59.218Z,3.23
2019-05-12T19:37:30.094Z,3.63
2019-05-12T19:40:04.018Z,3.20
2019-05-12T19:42:30.920Z,3.83
2019-05-12T19:45:05.736Z,4.00
2019-05-12T19:47:35.605Z,4.10
2019-05-12T19:50:06.868Z,4.40
2019-05-12T19:52:33.718Z,4.67
2019-05-12T19:55:03.655Z,4.40
2019-05-12T19:57:33.665Z,4.83
2019-05-12T20:00:04.493Z,4.67
2019-05-12T20:02:34.311Z,4.43
2019-05-12T20:05:04.592Z,4.83
2019-05-12T20:07:34.482Z,4.90
2019-05-12T20:10:04.779Z,5.67
2019-05-12T20:12:34.485Z,5.00
2019-05-12T20:15:04.180Z,5.00
2019-05-12T20:17:34.118Z,4.90
2019-05-12T20:20:04.741Z,4.63
2019-05-12T20:22:34.393Z,5.03
2019-05-12T20:25:04.460Z,5.47
2019-05-12T20:27:34.517Z,5.60
2019-05-12T20:30:09.369Z,5.13
2019-05-12T20:32:35.447Z,5.57
2019-05-12T20:35:05.155Z,5.83
2019-05-12T20:37:34.635Z,5.40
2019-05-12T20:40:05.661Z,5.80
2019-05-12T20:42:42.277Z,6.30
2019-05-12T20:45:06.625Z,6.30
2019-05-12T20:47:39.046Z,6.60
2019-05-12T20:50:07.407Z,6.80
2019-05-12T20:52:39.368Z,7.10
2019-05-12T20:55:08.466Z,7.20
2019-05-12T20:57:40.148Z,7.07
2019-05-12T21:00:09.531Z,7.23
2019-05-12T21:02:38.935Z,7.33
2019-05-12T21:05:14.419Z,7.80
2019-05-12T21:07:39.654Z,7.57
2019-05-12T21:10:09.665Z,6.83
2019-05-12T21:12:40.014Z,7.33
2019-05-12T21:15:17.346Z,7.43
2019-05-12T21:17:44.234Z,6.73
2019-05-12T21:20:16.584Z,6.87
2019-05-12T21:22:45.681Z,6.60
2019-05-12T21:25:15.068Z,6.20
2019-05-12T21:27:47.824Z,6.83
2019-05-12T21:30:16.562Z,7.40
2019-05-12T21:32:55.530Z,6.50
2019-05-12T21:35:22.291Z,7.03
2019-05-12T21:37:48.593Z,7.00
2019-05-12T21:40:24.207Z,6.70
2019-05-12T21:42:49.293Z,6.43
2019-05-12T21:45:20.316Z,6.83
2019-05-12T21:47:49.813Z,6.87
2019-05-12T21:50:24.122Z,7.10
2019-05-12T21:52:56.432Z,7.07
2019-05-12T21:55:24.041Z,7.97
2019-05-12T21:57:53.824Z,7.00
2019-05-12T22:00:31.540Z,7.20
2019-05-12T22:03:02.495Z,6.83
2019-05-12T22:05:49.994Z,7.80
2019-05-12T22:08:06.502Z,8.13
2019-05-12T22:10:35.869Z,7.83
2019-05-12T22:13:13.984Z,7.83
2019-05-12T22:15:36.538Z,7.40
2019-05-12T22:18:05.854Z,8.03
2019-05-12T22:20:36.029Z,8.23
2019-05-12T22:23:11.525Z,8.17
2019-05-12T22:25:36.685Z,8.43
2019-05-12T22:28:10.059Z,9.43
2019-05-12T22:30:37.180Z,8.90
2019-05-12T22:33:10.664Z,8.90
2019-05-12T22:35:37.756Z,9.30
2019-05-12T22:38:15.113Z,9.73
2019-05-12T22:40:38.273Z,9.67
2019-05-12T22:43:07.737Z,9.80
2019-05-12T22:45:44.344Z,10.20
2019-05-12T22:48:08.306Z,10.23
2019-05-12T22:50:37.768Z,10.03
2019-05-12T22:53:07.145Z,10.17
2019-05-12T22:55:36.643Z,9.20
2019-05-12T22:58:10.561Z,9.80
2019-05-12T23:00:37.491Z,9.80
2019-05-12T23:03:11.539Z,10.20
2019-05-12T23:05:37.968Z,9.97
2019-05-12T23:08:08.565Z,9.97
2019-05-12T23:10:41.576Z,9.43
2019-05-12T23:13:09.418Z,9.37
2019-05-12T23:15:44.430Z,9.47
2019-05-12T23:18:10.028Z,8.73
2019-05-12T23:20:39.470Z,9.30
2019-05-12T23:23:13.868Z,10.10
2019-05-12T23:25:40.027Z,9.03
2019-05-12T23:28:10.640Z,9.77
2019-05-12T23:30:46.455Z,9.40
2019-05-12T23:33:13.811Z,9.80
2019-05-12T23:35:44.341Z,9.57
2019-05-12T23:38:18.800Z,9.63
2019-05-12T23:40:44.711Z,10.77
2019-05-12T23:43:14.639Z,9.63
2019-05-12T23:45:44.587Z,10.07
2019-05-12T23:48:14.358Z,10.77
2019-05-12T23:50:44.241Z,9.83
2019-05-12T23:53:14.124Z,9.97
2019-05-12T23:55:43.939Z,11.60
2019-05-12T23:58:14.431Z,11.13
